sensor_id;sensor_type;location;lat;lon;timestamp;P1;durP1;ratioP1;P2;durP2;ratioP2
3022;SDS011;1521;53.584;9.938;2023-03-13T00:00:10;39.23;;;9.00;;
3022;SDS011;1521;53.584;9.938;2023-03-13T00:02:36;33.97;;;7.70;;
3022;SDS011;1521;53.584;9.938;2023-03-13T00:05:01;35.10;;;8.80;;
3022;SDS011;1521;53.584;9.938;2023-03-13T00:07:27;37.47;;;8.67;;
3022;SDS011;1521;53.584;9.938;2023-03-13T00:09:53;42.30;;;9.40;;
3022;SDS011;1521;53.584;9.938;2023-03-13T00:12:18;29.23;;;7.90;;
3022;SDS011;1521;53.584;9.938;2023-03-13T00:14:44;28.60;;;8.57;;
3022;SDS011;1521;53.584;9.938;2023-03-13T00:17:09;33.30;;;8.20;;
3022;SDS011;1521;53.584;9.938;2023-03-13T00:19:35;31.63;;;8.53;;
3022;SDS011;1521;53.584;9.938;2023-03-13T00:22:01;34.50;;;8.57;;
3022;SDS011;1521;53.584;9.938;2023-03-13T00:24:26;36.23;;;8.63;;
3022;SDS011;1521;53.584;9.938;2023-03-13T00:26:52;34.20;;;7.77;;
3022;SDS011;1521;53.584;9.938;2023-03-13T00:29:19;39.97;;;8.30;;
3022;SDS011;1521;53.584;9.938;2023-03-13T00:31:45;36.60;;;8.30;;
3022;SDS011;1521;53.584;9.938;2023-03-13T00:34:10;28.07;;;9.00;;
3022;SDS011;1521;53.584;9.938;2023-03-13T00:36:36;46.23;;;9.33;;
3022;SDS011;1521;53.584;9.938;2023-03-13T00:39:02;44.07;;;8.67;;
3022;SDS011;1521;53.584;9.938;2023-03-13T00:41:30;32.60;;;10.00;;
3022;SDS011;1521;53.584;9.938;2023-03-13T00:43:56;39.03;;;8.67;;
3022;SDS011;1521;53.584;9.938;2023-03-13T00:46:23;33.10;;;7.63;;
3022;SDS011;1521;53.584;9.938;2023-03-13T00:48:51;39.40;;;8.33;;
3022;SDS011;1521;53.584;9.938;2023-03-13T00:51:18;31.57;;;8.60;;
3022;SDS011;1521;53.584;9.938;2023-03-13T00:53:44;43.33;;;8.20;;
3022;SDS011;1521;53.584;9.938;2023-03-13T00:56:11;44.13;;;9.23;;
3022;SDS011;1521;53.584;9.938;2023-03-13T00:58:39;37.60;;;10.47;;
3022;SDS011;1521;53.584;9.938;2023-03-13T01:03:33;29.07;;;8.43;;
3022;SDS011;1521;53.584;9.938;2023-03-13T01:06:00;35.93;;;8.10;;
3022;SDS011;1521;53.584;9.938;2023-03-13T01:08:27;33.77;;;8.13;;
3022;SDS011;1521;53.584;9.938;2023-03-13T01:11:00;54.03;;;9.13;;
3022;SDS011;1521;53.584;9.938;2023-03-13T01:13:30;28.83;;;8.63;;
3022;SDS011;1521;53.584;9.938;2023-03-13T01:16:05;36.53;;;8.67;;
3022;SDS011;1521;53.584;9.938;2023-03-13T01:18:36;37.17;;;8.63;;
3022;SDS011;1521;53.584;9.938;2023-03-13T01:21:03;31.13;;;8.67;;
3022;SDS011;1521;53.584;9.938;2023-03-13T01:23:30;35.67;;;9.60;;
3022;SDS011;1521;53.584;9.938;2023-03-13T01:25:56;37.33;;;9.03;;
3022;SDS011;1521;53.584;9.938;2023-03-13T01:28:22;33.87;;;8.67;;
3022;SDS011;1521;53.584;9.938;2023-03-13T01:30:49;37.50;;;8.77;;
3022;SDS011;1521;53.584;9.938;2023-03-13T01:33:15;45.60;;;8.90;;
3022;SDS011;1521;53.584;9.938;2023-03-13T01:35:40;43.17;;;10.23;;
3022;SDS011;1521;53.584;9.938;2023-03-13T01:38:06;36.43;;;8.83;;
3022;SDS011;1521;53.584;9.938;2023-03-13T01:40:42;43.63;;;9.70;;
3022;SDS011;1521;53.584;9.938;2023-03-13T01:43:22;29.73;;;8.00;;
3022;SDS011;1521;53.584;9.938;2023-03-13T01:45:55;44.83;;;9.30;;
3022;SDS011;1521;53.584;9.938;2023-03-13T01:48:46;35.63;;;8.27;;
3022;SDS011;1521;53.584;9.938;2023-03-13T01:53:54;43.37;;;9.13;;
3022;SDS011;1521;53.584;9.938;2023-03-13T01:56:27;45.20;;;9.20;;
3022;SDS011;1521;53.584;9.938;2023-03-13T01:59:03;37.67;;;8.83;;
3022;SDS011;1521;53.584;9.938;2023-03-13T02:01:30;27.73;;;8.33;;
3022;SDS011;1521;53.584;9.938;2023-03-13T02:03:58;39.27;;;9.17;;
3022;SDS011;1521;53.584;9.938;2023-03-13T02:06:24;32.37;;;9.00;;
3022;SDS011;1521;53.584;9.938;2023-03-13T02:08:54;30.23;;;8.33;;
3022;SDS011;1521;53.584;9.938;2023-03-13T02:13:53;30.30;;;7.43;;
3022;SDS011;1521;53.584;9.938;2023-03-13T02:16:20;31.70;;;8.37;;
3022;SDS011;1521;53.584;9.938;2023-03-13T02:18:46;44.17;;;8.83;;
3022;SDS011;1521;53.584;9.938;2023-03-13T02:21:15;36.23;;;9.27;;
3022;SDS011;1521;53.584;9.938;2023-03-13T02:24:20;42.23;;;8.60;;
3022;SDS011;1521;53.584;9.938;2023-03-13T02:27:20;38.03;;;9.20;;
3022;SDS011;1521;53.584;9.938;2023-03-13T02:29:46;42.70;;;9.03;;
3022;SDS011;1521;53.584;9.938;2023-03-13T02:32:13;40.17;;;8.47;;
3022;SDS011;1521;53.584;9.938;2023-03-13T02:34:39;40.40;;;7.83;;
3022;SDS011;1521;53.584;9.938;2023-03-13T02:37:06;33.50;;;7.97;;
3022;SDS011;1521;53.584;9.938;2023-03-13T02:39:37;36.67;;;8.73;;
3022;SDS011;1521;53.584;9.938;2023-03-13T02:42:05;43.43;;;8.50;;
3022;SDS011;1521;53.584;9.938;2023-03-13T02:44:36;30.30;;;7.23;;
3022;SDS011;1521;53.584;9.938;2023-03-13T02:47:05;45.57;;;7.47;;
3022;SDS011;1521;53.584;9.938;2023-03-13T02:49:33;32.07;;;6.40;;
3022;SDS011;1521;53.584;9.938;2023-03-13T02:52:03;34.30;;;8.00;;
3022;SDS011;1521;53.584;9.938;2023-03-13T02:54:36;39.90;;;7.07;;
3022;SDS011;1521;53.584;9.938;2023-03-13T02:57:03;39.83;;;8.97;;
3022;SDS011;1521;53.584;9.938;2023-03-13T02:59:29;39.10;;;8.53;;
3022;SDS011;1521;53.584;9.938;2023-03-13T03:01:56;33.10;;;8.20;;
3022;SDS011;1521;53.584;9.938;2023-03-13T03:04:22;33.30;;;7.87;;
3022;SDS011;1521;53.584;9.938;2023-03-13T03:06:49;35.60;;;7.57;;
3022;SDS011;1521;53.584;9.938;2023-03-13T03:09:15;31.93;;;7.67;;
3022;SDS011;1521;53.584;9.938;2023-03-13T03:11:42;40.20;;;7.43;;
3022;SDS011;1521;53.584;9.938;2023-03-13T03:14:08;43.13;;;7.83;;
3022;SDS011;1521;53.584;9.938;2023-03-13T03:16:35;32.47;;;8.43;;
3022;SDS011;1521;53.584;9.938;2023-03-13T03:19:01;32.23;;;7.60;;
3022;SDS011;1521;53.584;9.938;2023-03-13T03:21:27;45.57;;;7.47;;
3022;SDS011;1521;53.584;9.938;2023-03-13T03:23:52;34.30;;;7.67;;
3022;SDS011;1521;53.584;9.938;2023-03-13T03:26:18;34.73;;;8.50;;
3022;SDS011;1521;53.584;9.938;2023-03-13T03:28:44;27.20;;;6.20;;
3022;SDS011;1521;53.584;9.938;2023-03-13T03:31:11;43.40;;;8.47;;
3022;SDS011;1521;53.584;9.938;2023-03-13T03:33:37;37.17;;;7.63;;
3022;SDS011;1521;53.584;9.938;2023-03-13T03:36:05;24.43;;;7.13;;
3022;SDS011;1521;53.584;9.938;2023-03-13T03:38:32;38.13;;;7.23;;
3022;SDS011;1521;53.584;9.938;2023-03-13T03:40:58;36.70;;;8.47;;
3022;SDS011;1521;53.584;9.938;2023-03-13T03:43:24;34.57;;;6.67;;
3022;SDS011;1521;53.584;9.938;2023-03-13T03:45:49;33.00;;;6.83;;
3022;SDS011;1521;53.584;9.938;2023-03-13T03:48:15;23.03;;;6.77;;
3022;SDS011;1521;53.584;9.938;2023-03-13T03:50:41;35.60;;;7.33;;
3022;SDS011;1521;53.584;9.938;2023-03-13T03:53:06;40.43;;;6.97;;
3022;SDS011;1521;53.584;9.938;2023-03-13T03:55:33;33.23;;;7.40;;
3022;SDS011;1521;53.584;9.938;2023-03-13T03:57:59;31.03;;;7.00;;
3022;SDS011;1521;53.584;9.938;2023-03-13T04:00:24;34.60;;;7.57;;
3022;SDS011;1521;53.584;9.938;2023-03-13T04:02:51;49.03;;;8.93;;
3022;SDS011;1521;53.584;9.938;2023-03-13T04:05:17;32.97;;;7.63;;
3022;SDS011;1521;53.584;9.938;2023-03-13T04:07:43;26.90;;;6.50;;
3022;SDS011;1521;53.584;9.938;2023-03-13T04:10:09;35.17;;;6.73;;
3022;SDS011;1521;53.584;9.938;2023-03-13T04:12:34;36.47;;;6.80;;
3022;SDS011;1521;53.584;9.938;2023-03-13T04:15:00;34.33;;;6.50;;
3022;SDS011;1521;53.584;9.938;2023-03-13T04:17:26;31.60;;;6.17;;
3022;SDS011;1521;53.584;9.938;2023-03-13T04:19:51;41.10;;;7.60;;
3022;SDS011;1521;53.584;9.938;2023-03-13T04:22:17;27.87;;;6.63;;
3022;SDS011;1521;53.584;9.938;2023-03-13T04:24:42;31.13;;;6.93;;
3022;SDS011;1521;53.584;9.938;2023-03-13T04:27:08;30.23;;;7.47;;
3022;SDS011;1521;53.584;9.938;2023-03-13T04:29:34;29.40;;;7.90;;
3022;SDS011;1521;53.584;9.938;2023-03-13T04:31:59;25.17;;;6.53;;
3022;SDS011;1521;53.584;9.938;2023-03-13T04:34:26;27.10;;;6.63;;
3022;SDS011;1521;53.584;9.938;2023-03-13T04:36:52;31.17;;;6.30;;
3022;SDS011;1521;53.584;9.938;2023-03-13T04:39:19;31.40;;;7.57;;
3022;SDS011;1521;53.584;9.938;2023-03-13T04:41:49;32.03;;;7.17;;
3022;SDS011;1521;53.584;9.938;2023-03-13T04:44:18;35.57;;;6.83;;
3022;SDS011;1521;53.584;9.938;2023-03-13T04:46:43;27.27;;;6.93;;
3022;SDS011;1521;53.584;9.938;2023-03-13T04:49:09;36.00;;;6.20;;
3022;SDS011;1521;53.584;9.938;2023-03-13T04:51:35;28.40;;;7.33;;
3022;SDS011;1521;53.584;9.938;2023-03-13T04:54:00;29.10;;;6.77;;
3022;SDS011;1521;53.584;9.938;2023-03-13T04:56:26;31.33;;;6.17;;
3022;SDS011;1521;53.584;9.938;2023-03-13T04:58:52;27.27;;;6.30;;
3022;SDS011;1521;53.584;9.938;2023-03-13T05:01:18;33.47;;;6.53;;
3022;SDS011;1521;53.584;9.938;2023-03-13T05:03:44;27.77;;;6.83;;
3022;SDS011;1521;53.584;9.938;2023-03-13T05:06:10;25.80;;;6.97;;
3022;SDS011;1521;53.584;9.938;2023-03-13T05:08:36;26.63;;;6.50;;
3022;SDS011;1521;53.584;9.938;2023-03-13T05:11:02;27.50;;;6.17;;
3022;SDS011;1521;53.584;9.938;2023-03-13T05:13:29;27.07;;;7.27;;
3022;SDS011;1521;53.584;9.938;2023-03-13T05:15:54;27.20;;;7.20;;
3022;SDS011;1521;53.584;9.938;2023-03-13T05:18:20;27.20;;;7.97;;
3022;SDS011;1521;53.584;9.938;2023-03-13T05:20:46;27.30;;;7.03;;
3022;SDS011;1521;53.584;9.938;2023-03-13T05:23:12;26.83;;;6.00;;
3022;SDS011;1521;53.584;9.938;2023-03-13T05:25:37;23.97;;;6.20;;
3022;SDS011;1521;53.584;9.938;2023-03-13T05:28:03;31.70;;;7.60;;
3022;SDS011;1521;53.584;9.938;2023-03-13T05:30:29;19.13;;;6.20;;
3022;SDS011;1521;53.584;9.938;2023-03-13T05:32:54;26.77;;;6.03;;
3022;SDS011;1521;53.584;9.938;2023-03-13T05:35:20;16.37;;;5.80;;
3022;SDS011;1521;53.584;9.938;2023-03-13T05:37:45;19.00;;;6.07;;
3022;SDS011;1521;53.584;9.938;2023-03-13T05:40:11;21.13;;;5.67;;
3022;SDS011;1521;53.584;9.938;2023-03-13T05:42:38;21.53;;;5.70;;
3022;SDS011;1521;53.584;9.938;2023-03-13T05:45:04;18.57;;;5.97;;
3022;SDS011;1521;53.584;9.938;2023-03-13T05:47:30;24.00;;;6.13;;
3022;SDS011;1521;53.584;9.938;2023-03-13T05:49:55;22.37;;;5.70;;
3022;SDS011;1521;53.584;9.938;2023-03-13T05:52:21;20.73;;;4.50;;
3022;SDS011;1521;53.584;9.938;2023-03-13T05:54:47;13.77;;;4.77;;
3022;SDS011;1521;53.584;9.938;2023-03-13T05:57:12;13.27;;;4.33;;
3022;SDS011;1521;53.584;9.938;2023-03-13T05:59:38;13.63;;;4.30;;
3022;SDS011;1521;53.584;9.938;2023-03-13T06:02:04;14.40;;;4.60;;
3022;SDS011;1521;53.584;9.938;2023-03-13T06:04:29;10.30;;;3.60;;
3022;SDS011;1521;53.584;9.938;2023-03-13T06:06:55;10.07;;;3.60;;
3022;SDS011;1521;53.584;9.938;2023-03-13T06:09:21;11.13;;;3.00;;
3022;SDS011;1521;53.584;9.938;2023-03-13T06:11:46;8.30;;;2.63;;
3022;SDS011;1521;53.584;9.938;2023-03-13T06:14:12;6.53;;;2.70;;
3022;SDS011;1521;53.584;9.938;2023-03-13T06:16:37;10.57;;;3.33;;
3022;SDS011;1521;53.584;9.938;2023-03-13T06:19:03;4.40;;;2.37;;
3022;SDS011;1521;53.584;9.938;2023-03-13T06:21:28;8.90;;;2.73;;
3022;SDS011;1521;53.584;9.938;2023-03-13T06:23:54;8.70;;;2.93;;
3022;SDS011;1521;53.584;9.938;2023-03-13T06:26:20;10.67;;;3.20;;
3022;SDS011;1521;53.584;9.938;2023-03-13T06:28:48;6.20;;;3.17;;
3022;SDS011;1521;53.584;9.938;2023-03-13T06:31:14;11.00;;;2.30;;
3022;SDS011;1521;53.584;9.938;2023-03-13T06:33:39;9.60;;;2.33;;
3022;SDS011;1521;53.584;9.938;2023-03-13T06:36:05;6.93;;;2.20;;
3022;SDS011;1521;53.584;9.938;2023-03-13T06:38:31;5.20;;;2.20;;
3022;SDS011;1521;53.584;9.938;2023-03-13T06:40:57;3.40;;;2.00;;
3022;SDS011;1521;53.584;9.938;2023-03-13T06:43:22;4.70;;;2.40;;
3022;SDS011;1521;53.584;9.938;2023-03-13T06:45:48;5.47;;;1.77;;
3022;SDS011;1521;53.584;9.938;2023-03-13T06:48:14;7.20;;;2.03;;
3022;SDS011;1521;53.584;9.938;2023-03-13T06:50:40;4.00;;;2.30;;
3022;SDS011;1521;53.584;9.938;2023-03-13T06:53:06;6.40;;;2.50;;
3022;SDS011;1521;53.584;9.938;2023-03-13T06:55:32;6.53;;;2.37;;
3022;SDS011;1521;53.584;9.938;2023-03-13T06:57:58;5.30;;;2.83;;
3022;SDS011;1521;53.584;9.938;2023-03-13T07:00:24;6.67;;;2.73;;
3022;SDS011;1521;53.584;9.938;2023-03-13T07:02:49;4.90;;;2.60;;
3022;SDS011;1521;53.584;9.938;2023-03-13T07:05:15;3.13;;;2.40;;
3022;SDS011;1521;53.584;9.938;2023-03-13T07:07:41;7.17;;;3.23;;
3022;SDS011;1521;53.584;9.938;2023-03-13T07:10:08;3.90;;;2.97;;
3022;SDS011;1521;53.584;9.938;2023-03-13T07:12:34;7.43;;;2.77;;
3022;SDS011;1521;53.584;9.938;2023-03-13T07:15:01;5.37;;;2.53;;
3022;SDS011;1521;53.584;9.938;2023-03-13T07:17:27;4.87;;;3.00;;
3022;SDS011;1521;53.584;9.938;2023-03-13T07:19:52;5.30;;;2.90;;
3022;SDS011;1521;53.584;9.938;2023-03-13T07:22:18;4.87;;;3.00;;
3022;SDS011;1521;53.584;9.938;2023-03-13T07:24:44;6.10;;;3.43;;
3022;SDS011;1521;53.584;9.938;2023-03-13T07:27:09;8.90;;;4.93;;
3022;SDS011;1521;53.584;9.938;2023-03-13T07:29:35;6.63;;;3.43;;
3022;SDS011;1521;53.584;9.938;2023-03-13T07:32:00;6.27;;;4.50;;
3022;SDS011;1521;53.584;9.938;2023-03-13T07:34:26;11.00;;;3.53;;
3022;SDS011;1521;53.584;9.938;2023-03-13T07:36:52;4.83;;;3.30;;
3022;SDS011;1521;53.584;9.938;2023-03-13T07:39:17;5.40;;;3.63;;
3022;SDS011;1521;53.584;9.938;2023-03-13T07:41:43;7.20;;;3.80;;
3022;SDS011;1521;53.584;9.938;2023-03-13T07:44:08;9.63;;;4.00;;
3022;SDS011;1521;53.584;9.938;2023-03-13T07:46:34;7.43;;;4.40;;
3022;SDS011;1521;53.584;9.938;2023-03-13T07:49:00;9.20;;;5.10;;
3022;SDS011;1521;53.584;9.938;2023-03-13T07:51:25;9.77;;;4.80;;
3022;SDS011;1521;53.584;9.938;2023-03-13T07:53:52;8.50;;;4.60;;
3022;SDS011;1521;53.584;9.938;2023-03-13T07:56:19;6.50;;;4.43;;
3022;SDS011;1521;53.584;9.938;2023-03-13T07:58:46;9.03;;;4.40;;
3022;SDS011;1521;53.584;9.938;2023-03-13T08:03:45;9.67;;;5.07;;
3022;SDS011;1521;53.584;9.938;2023-03-13T08:06:15;7.53;;;4.80;;
3022;SDS011;1521;53.584;9.938;2023-03-13T08:08:42;7.83;;;5.10;;
3022;SDS011;1521;53.584;9.938;2023-03-13T08:11:09;9.20;;;5.30;;
3022;SDS011;1521;53.584;9.938;2023-03-13T08:13:36;12.50;;;6.37;;
3022;SDS011;1521;53.584;9.938;2023-03-13T08:18:33;7.87;;;5.77;;
3022;SDS011;1521;53.584;9.938;2023-03-13T08:21:00;6.83;;;5.13;;
3022;SDS011;1521;53.584;9.938;2023-03-13T08:23:31;6.60;;;4.90;;
3022;SDS011;1521;53.584;9.938;2023-03-13T08:26:07;7.40;;;5.20;;
3022;SDS011;1521;53.584;9.938;2023-03-13T08:28:35;6.30;;;4.83;;
3022;SDS011;1521;53.584;9.938;2023-03-13T08:33:43;5.50;;;4.50;;
3022;SDS011;1521;53.584;9.938;2023-03-13T08:36:14;7.50;;;4.70;;
3022;SDS011;1521;53.584;9.938;2023-03-13T08:38:41;6.87;;;5.40;;
3022;SDS011;1521;53.584;9.938;2023-03-13T08:41:08;7.57;;;5.70;;
3022;SDS011;1521;53.584;9.938;2023-03-13T08:43:35;9.50;;;4.73;;
3022;SDS011;1521;53.584;9.938;2023-03-13T08:46:00;7.03;;;5.60;;
3022;SDS011;1521;53.584;9.938;2023-03-13T08:48:26;9.03;;;6.03;;
3022;SDS011;1521;53.584;9.938;2023-03-13T08:51:26;7.30;;;5.73;;
3022;SDS011;1521;53.584;9.938;2023-03-13T08:53:45;10.73;;;6.60;;
3022;SDS011;1521;53.584;9.938;2023-03-13T08:56:12;9.80;;;6.47;;
3022;SDS011;1521;53.584;9.938;2023-03-13T08:58:39;9.47;;;6.60;;
3022;SDS011;1521;53.584;9.938;2023-03-13T09:01:08;9.57;;;6.67;;
3022;SDS011;1521;53.584;9.938;2023-03-13T09:03:34;9.43;;;6.50;;
3022;SDS011;1521;53.584;9.938;2023-03-13T09:06:01;10.50;;;7.00;;
3022;SDS011;1521;53.584;9.938;2023-03-13T09:08:28;11.53;;;6.87;;
3022;SDS011;1521;53.584;9.938;2023-03-13T09:10:55;11.23;;;7.40;;
3022;SDS011;1521;53.584;9.938;2023-03-13T09:13:21;10.40;;;6.60;;
3022;SDS011;1521;53.584;9.938;2023-03-13T09:15:57;11.03;;;7.30;;
3022;SDS011;1521;53.584;9.938;2023-03-13T09:18:25;12.53;;;6.77;;
3022;SDS011;1521;53.584;9.938;2023-03-13T09:20:51;15.53;;;8.10;;
3022;SDS011;1521;53.584;9.938;2023-03-13T09:23:17;10.37;;;7.07;;
3022;SDS011;1521;53.584;9.938;2023-03-13T09:25:43;10.80;;;8.07;;
3022;SDS011;1521;53.584;9.938;2023-03-13T09:28:08;12.40;;;7.80;;
3022;SDS011;1521;53.584;9.938;2023-03-13T09:30:34;10.50;;;7.03;;
3022;SDS011;1521;53.584;9.938;2023-03-13T09:33:00;9.60;;;6.97;;
3022;SDS011;1521;53.584;9.938;2023-03-13T09:35:25;10.00;;;7.10;;
3022;SDS011;1521;53.584;9.938;2023-03-13T09:37:51;11.43;;;7.37;;
3022;SDS011;1521;53.584;9.938;2023-03-13T09:40:17;10.83;;;7.30;;
3022;SDS011;1521;53.584;9.938;2023-03-13T09:42:52;9.70;;;6.97;;
3022;SDS011;1521;53.584;9.938;2023-03-13T09:45:24;12.10;;;6.93;;
3022;SDS011;1521;53.584;9.938;2023-03-13T09:47:58;7.47;;;6.53;;
3022;SDS011;1521;53.584;9.938;2023-03-13T09:50:34;11.80;;;7.60;;
3022;SDS011;1521;53.584;9.938;2023-03-13T09:53:14;10.47;;;7.67;;
3022;SDS011;1521;53.584;9.938;2023-03-13T09:55:50;13.93;;;7.33;;
3022;SDS011;1521;53.584;9.938;2023-03-13T09:58:17;13.30;;;8.13;;
3022;SDS011;1521;53.584;9.938;2023-03-13T10:00:56;9.97;;;7.30;;
3022;SDS011;1521;53.584;9.938;2023-03-13T10:03:39;12.03;;;8.33;;
3022;SDS011;1521;53.584;9.938;2023-03-13T10:06:14;11.17;;;7.57;;
3022;SDS011;1521;53.584;9.938;2023-03-13T10:08:43;10.43;;;7.40;;
3022;SDS011;1521;53.584;9.938;2023-03-13T10:11:10;13.73;;;7.60;;
3022;SDS011;1521;53.584;9.938;2023-03-13T10:16:03;12.83;;;8.23;;
3022;SDS011;1521;53.584;9.938;2023-03-13T10:18:34;11.53;;;7.50;;
3022;SDS011;1521;53.584;9.938;2023-03-13T10:21:02;12.07;;;7.73;;
3022;SDS011;1521;53.584;9.938;2023-03-13T10:23:46;14.37;;;7.57;;
3022;SDS011;1521;53.584;9.938;2023-03-13T10:26:22;10.37;;;7.00;;
3022;SDS011;1521;53.584;9.938;2023-03-13T10:28:51;14.10;;;6.80;;
3022;SDS011;1521;53.584;9.938;2023-03-13T10:31:31;10.00;;;6.40;;
3022;SDS011;1521;53.584;9.938;2023-03-13T10:34:05;11.07;;;5.87;;
3022;SDS011;1521;53.584;9.938;2023-03-13T10:36:41;7.23;;;6.43;;
3022;SDS011;1521;53.584;9.938;2023-03-13T10:39:12;7.57;;;5.40;;
3022;SDS011;1521;53.584;9.938;2023-03-13T10:41:42;8.33;;;5.30;;
3022;SDS011;1521;53.584;9.938;2023-03-13T10:44:19;8.70;;;5.50;;
3022;SDS011;1521;53.584;9.938;2023-03-13T10:46:47;6.80;;;4.53;;
3022;SDS011;1521;53.584;9.938;2023-03-13T10:51:51;5.10;;;4.33;;
3022;SDS011;1521;53.584;9.938;2023-03-13T10:54:23;8.97;;;5.30;;
3022;SDS011;1521;53.584;9.938;2023-03-13T10:56:50;9.37;;;5.30;;
3022;SDS011;1521;53.584;9.938;2023-03-13T10:59:23;5.40;;;4.90;;
3022;SDS011;1521;53.584;9.938;2023-03-13T11:01:50;6.33;;;4.80;;
3022;SDS011;1521;53.584;9.938;2023-03-13T11:04:28;6.07;;;5.47;;
3022;SDS011;1521;53.584;9.938;2023-03-13T11:07:13;7.30;;;5.00;;
3022;SDS011;1521;53.584;9.938;2023-03-13T11:09:51;10.83;;;5.17;;
3022;SDS011;1521;53.584;9.938;2023-03-13T11:12:24;7.80;;;5.13;;
3022;SDS011;1521;53.584;9.938;2023-03-13T11:14:57;7.33;;;5.20;;
3022;SDS011;1521;53.584;9.938;2023-03-13T11:25:18;6.70;;;4.10;;
3022;SDS011;1521;53.584;9.938;2023-03-13T11:28:00;5.57;;;4.03;;
3022;SDS011;1521;53.584;9.938;2023-03-13T11:30:53;6.47;;;3.80;;
3022;SDS011;1521;53.584;9.938;2023-03-13T11:33:27;3.93;;;2.87;;
3022;SDS011;1521;53.584;9.938;2023-03-13T11:38:26;4.40;;;2.50;;
3022;SDS011;1521;53.584;9.938;2023-03-13T11:41:17;3.83;;;2.27;;
3022;SDS011;1521;53.584;9.938;2023-03-13T11:52:05;4.83;;;2.20;;
3022;SDS011;1521;53.584;9.938;2023-03-13T12:00:35;5.30;;;2.33;;
3022;SDS011;1521;53.584;9.938;2023-03-13T12:05:49;5.47;;;2.40;;
3022;SDS011;1521;53.584;9.938;2023-03-13T12:10:54;6.77;;;2.70;;
3022;SDS011;1521;53.584;9.938;2023-03-13T12:13:30;3.13;;;2.40;;
3022;SDS011;1521;53.584;9.938;2023-03-13T12:16:01;2.80;;;2.53;;
3022;SDS011;1521;53.584;9.938;2023-03-13T12:18:34;4.97;;;2.40;;
3022;SDS011;1521;53.584;9.938;2023-03-13T12:26:13;7.40;;;2.17;;
3022;SDS011;1521;53.584;9.938;2023-03-13T12:31:41;5.90;;;2.60;;
3022;SDS011;1521;53.584;9.938;2023-03-13T12:34:21;5.87;;;2.87;;
3022;SDS011;1521;53.584;9.938;2023-03-13T12:39:56;4.30;;;2.70;;
3022;SDS011;1521;53.584;9.938;2023-03-13T12:45:32;3.67;;;2.10;;
3022;SDS011;1521;53.584;9.938;2023-03-13T12:48:24;3.22;;;2.28;;
3022;SDS011;1521;53.584;9.938;2023-03-13T12:56:40;3.90;;;2.17;;
3022;SDS011;1521;53.584;9.938;2023-03-13T12:59:20;4.90;;;2.23;;
3022;SDS011;1521;53.584;9.938;2023-03-13T13:01:57;8.13;;;2.30;;
3022;SDS011;1521;53.584;9.938;2023-03-13T13:04:27;6.03;;;2.23;;
3022;SDS011;1521;53.584;9.938;2023-03-13T13:07:03;4.63;;;2.07;;
3022;SDS011;1521;53.584;9.938;2023-03-13T13:09:58;9.97;;;2.40;;
3022;SDS011;1521;53.584;9.938;2023-03-13T13:12:24;2.57;;;1.53;;
3022;SDS011;1521;53.584;9.938;2023-03-13T13:17:21;11.40;;;2.10;;
3022;SDS011;1521;53.584;9.938;2023-03-13T13:19:51;8.23;;;1.77;;
3022;SDS011;1521;53.584;9.938;2023-03-13T13:25:46;13.33;;;2.40;;
3022;SDS011;1521;53.584;9.938;2023-03-13T13:30:49;4.20;;;1.70;;
3022;SDS011;1521;53.584;9.938;2023-03-13T13:38:40;3.23;;;1.83;;
3022;SDS011;1521;53.584;9.938;2023-03-13T13:46:26;5.17;;;1.70;;
3022;SDS011;1521;53.584;9.938;2023-03-13T13:51:41;6.93;;;1.57;;
3022;SDS011;1521;53.584;9.938;2023-03-13T13:54:31;5.33;;;1.63;;
3022;SDS011;1521;53.584;9.938;2023-03-13T13:56:59;6.73;;;1.80;;
3022;SDS011;1521;53.584;9.938;2023-03-13T13:59:43;2.50;;;2.00;;
3022;SDS011;1521;53.584;9.938;2023-03-13T14:02:19;2.00;;;1.70;;
3022;SDS011;1521;53.584;9.938;2023-03-13T14:07:27;4.67;;;1.80;;
3022;SDS011;1521;53.584;9.938;2023-03-13T14:12:57;4.47;;;2.00;;
3022;SDS011;1521;53.584;9.938;2023-03-13T14:17:58;2.00;;;1.50;;
3022;SDS011;1521;53.584;9.938;2023-03-13T14:20:37;12.50;;;2.47;;
3022;SDS011;1521;53.584;9.938;2023-03-13T14:23:08;9.13;;;2.43;;
3022;SDS011;1521;53.584;9.938;2023-03-13T14:25:45;9.53;;;2.00;;
3022;SDS011;1521;53.584;9.938;2023-03-13T14:28:22;5.20;;;1.67;;
3022;SDS011;1521;53.584;9.938;2023-03-13T14:30:51;8.63;;;2.07;;
3022;SDS011;1521;53.584;9.938;2023-03-13T14:33:18;4.47;;;1.77;;
3022;SDS011;1521;53.584;9.938;2023-03-13T14:35:44;4.60;;;1.83;;
3022;SDS011;1521;53.584;9.938;2023-03-13T14:38:15;6.10;;;2.00;;
3022;SDS011;1521;53.584;9.938;2023-03-13T14:40:45;3.90;;;1.83;;
3022;SDS011;1521;53.584;9.938;2023-03-13T14:43:19;4.67;;;1.90;;
3022;SDS011;1521;53.584;9.938;2023-03-13T14:45:54;5.73;;;1.87;;
3022;SDS011;1521;53.584;9.938;2023-03-13T14:48:30;5.70;;;1.93;;
3022;SDS011;1521;53.584;9.938;2023-03-13T14:51:07;7.97;;;1.80;;
3022;SDS011;1521;53.584;9.938;2023-03-13T14:53:35;4.27;;;2.27;;
3022;SDS011;1521;53.584;9.938;2023-03-13T14:56:16;5.03;;;1.80;;
3022;SDS011;1521;53.584;9.938;2023-03-13T14:58:43;4.07;;;2.70;;
3022;SDS011;1521;53.584;9.938;2023-03-13T15:01:21;4.97;;;2.23;;
3022;SDS011;1521;53.584;9.938;2023-03-13T15:03:49;9.00;;;2.00;;
3022;SDS011;1521;53.584;9.938;2023-03-13T15:06:20;3.27;;;1.83;;
3022;SDS011;1521;53.584;9.938;2023-03-13T15:08:47;14.43;;;2.10;;
3022;SDS011;1521;53.584;9.938;2023-03-13T15:17:19;2.40;;;1.63;;
3022;SDS011;1521;53.584;9.938;2023-03-13T15:19:51;2.93;;;1.83;;
3022;SDS011;1521;53.584;9.938;2023-03-13T15:22:19;3.67;;;2.00;;
3022;SDS011;1521;53.584;9.938;2023-03-13T15:24:49;6.00;;;1.80;;
3022;SDS011;1521;53.584;9.938;2023-03-13T15:27:16;5.80;;;2.00;;
3022;SDS011;1521;53.584;9.938;2023-03-13T15:29:43;3.70;;;1.87;;
3022;SDS011;1521;53.584;9.938;2023-03-13T15:32:18;2.63;;;1.90;;
3022;SDS011;1521;53.584;9.938;2023-03-13T15:34:56;2.43;;;1.60;;
3022;SDS011;1521;53.584;9.938;2023-03-13T15:37:23;4.43;;;1.83;;
3022;SDS011;1521;53.584;9.938;2023-03-13T15:39:49;4.43;;;2.20;;
3022;SDS011;1521;53.584;9.938;2023-03-13T15:42:15;5.13;;;1.60;;
3022;SDS011;1521;53.584;9.938;2023-03-13T15:44:41;4.53;;;1.73;;
3022;SDS011;1521;53.584;9.938;2023-03-13T15:47:08;2.73;;;1.80;;
3022;SDS011;1521;53.584;9.938;2023-03-13T15:49:36;3.70;;;1.70;;
3022;SDS011;1521;53.584;9.938;2023-03-13T15:52:02;5.00;;;2.07;;
3022;SDS011;1521;53.584;9.938;2023-03-13T15:54:28;4.87;;;1.93;;
3022;SDS011;1521;53.584;9.938;2023-03-13T15:56:53;3.53;;;1.90;;
3022;SDS011;1521;53.584;9.938;2023-03-13T15:59:19;10.53;;;1.70;;
3022;SDS011;1521;53.584;9.938;2023-03-13T16:01:45;2.27;;;1.40;;
3022;SDS011;1521;53.584;9.938;2023-03-13T16:04:12;2.93;;;1.50;;
3022;SDS011;1521;53.584;9.938;2023-03-13T16:06:37;2.83;;;1.70;;
3022;SDS011;1521;53.584;9.938;2023-03-13T16:09:04;2.93;;;2.00;;
3022;SDS011;1521;53.584;9.938;2023-03-13T16:11:30;4.60;;;1.80;;
3022;SDS011;1521;53.584;9.938;2023-03-13T16:13:57;2.10;;;1.60;;
3022;SDS011;1521;53.584;9.938;2023-03-13T16:18:49;2.50;;;1.30;;
3022;SDS011;1521;53.584;9.938;2023-03-13T16:21:17;3.90;;;1.50;;
3022;SDS011;1521;53.584;9.938;2023-03-13T16:23:47;3.00;;;1.67;;
3022;SDS011;1521;53.584;9.938;2023-03-13T16:26:14;6.27;;;1.90;;
3022;SDS011;1521;53.584;9.938;2023-03-13T16:28:42;6.20;;;1.50;;
3022;SDS011;1521;53.584;9.938;2023-03-13T16:31:19;3.60;;;1.90;;
3022;SDS011;1521;53.584;9.938;2023-03-13T16:33:50;4.63;;;2.03;;
3022;SDS011;1521;53.584;9.938;2023-03-13T16:36:17;1.73;;;1.63;;
3022;SDS011;1521;53.584;9.938;2023-03-13T16:38:45;3.50;;;1.70;;
3022;SDS011;1521;53.584;9.938;2023-03-13T16:41:12;2.00;;;1.60;;
3022;SDS011;1521;53.584;9.938;2023-03-13T16:43:38;1.80;;;1.60;;
3022;SDS011;1521;53.584;9.938;2023-03-13T16:46:14;2.40;;;1.57;;
3022;SDS011;1521;53.584;9.938;2023-03-13T16:48:41;3.80;;;1.70;;
3022;SDS011;1521;53.584;9.938;2023-03-13T16:51:18;2.97;;;1.60;;
3022;SDS011;1521;53.584;9.938;2023-03-13T16:53:45;8.00;;;2.10;;
3022;SDS011;1521;53.584;9.938;2023-03-13T16:56:14;4.70;;;2.00;;
3022;SDS011;1521;53.584;9.938;2023-03-13T16:58:43;3.67;;;2.07;;
3022;SDS011;1521;53.584;9.938;2023-03-13T17:01:09;5.80;;;2.13;;
3022;SDS011;1521;53.584;9.938;2023-03-13T17:03:35;4.63;;;1.67;;
3022;SDS011;1521;53.584;9.938;2023-03-13T17:06:00;2.17;;;1.60;;